Time;durP1;ratioP1;P1;durP2;ratioP2;P2;SDS_P1;SDS_P2;PMS_P1;PMS_P2;Temp;Humidity;BMP_temperature;BMP_pressure;BME280_temperature;BME280_humidity;BME280_pressure;Samples;Min_cycle;Max_cycle;Signal;HPM_P1;HPM_P2
2023/06/16 00:00:03;;;;;;;8.00;6.90;;;16.00;99.90;;;;;;5093036;28;20944;-56
2023/06/16 00:02:33;;;;;;;8.30;7.47;;;15.90;99.90;;;;;;5092953;28;20799;-56
2023/06/16 00:05:01;;;;;;;8.27;6.87;;;15.90;99.90;;;;;;5116491;22;21068;-56
2023/06/16 00:07:33;;;;;;;8.87;7.33;;;15.80;99.90;;;;;;5093344;28;20427;-56
2023/06/16 00:10:00;;;;;;;8.87;7.67;;;15.80;99.90;;;;;;5093370;28;20423;-55
2023/06/16 00:12:27;;;;;;;9.83;7.67;;;15.70;99.90;;;;;;5093204;28;20450;-56
2023/06/16 00:14:53;;;;;;;9.20;7.63;;;15.70;99.90;;;;;;5093303;28;20458;-54
2023/06/16 00:17:23;;;;;;;8.73;6.63;;;15.60;99.90;;;;;;5093620;28;20482;-55
2023/06/16 00:19:52;;;;;;;9.70;7.63;;;15.60;99.90;;;;;;5093033;28;20452;-54
2023/06/16 00:22:20;;;;;;;6.80;6.10;;;15.60;99.90;;;;;;5093131;28;20863;-54
2023/06/16 00:24:47;;;;;;;7.80;7.10;;;15.60;99.90;;;;;;5092898;28;20498;-55
2023/06/16 00:27:14;;;;;;;10.80;7.33;;;15.50;99.90;;;;;;5095054;28;20451;-54
2023/06/16 00:29:41;;;;;;;9.03;6.00;;;15.60;99.90;;;;;;5097712;28;20449;-56
2023/06/16 00:32:08;;;;;;;8.47;7.57;;;15.50;99.90;;;;;;5097425;28;20449;-57
2023/06/16 00:34:35;;;;;;;8.13;6.07;;;15.60;99.90;;;;;;5097697;28;20837;-56
2023/06/16 00:37:03;;;;;;;6.83;6.13;;;15.60;99.90;;;;;;5097285;28;21029;-55
2023/06/16 00:39:30;;;;;;;11.13;6.87;;;15.60;99.90;;;;;;5097669;28;20816;-56
2023/06/16 00:41:57;;;;;;;8.07;7.13;;;15.50;99.90;;;;;;5097367;28;20449;-56
2023/06/16 00:44:24;;;;;;;7.70;6.60;;;15.60;99.90;;;;;;5097341;28;20466;-56
2023/06/16 00:46:51;;;;;;;7.10;6.10;;;15.50;99.90;;;;;;5097870;28;20445;-55
2023/06/16 00:49:18;;;;;;;8.20;6.57;;;15.50;99.90;;;;;;5097583;28;20450;-56
2023/06/16 00:51:45;;;;;;;6.67;5.97;;;15.50;99.90;;;;;;5096767;28;20445;-56
2023/06/16 00:54:13;;;;;;;7.20;6.60;;;15.40;99.90;;;;;;5096740;28;20552;-55
2023/06/16 00:56:43;;;;;;;12.40;7.33;;;15.40;99.90;;;;;;5096944;28;20480;-55
2023/06/16 00:59:10;;;;;;;7.20;6.50;;;15.40;99.90;;;;;;5097331;28;20459;-55
2023/06/16 01:01:38;;;;;;;10.13;6.47;;;15.30;99.90;;;;;;5096737;28;20441;-55
2023/06/16 01:04:05;;;;;;;7.37;6.00;;;15.30;99.90;;;;;;5096577;28;20557;-55
2023/06/16 01:06:51;;;;;;;7.30;5.93;;;15.30;99.90;;;;;;5097237;28;20429;-54
2023/06/16 01:09:27;;;;;;;7.83;6.60;;;15.20;99.90;;;;;;5096845;28;20427;-55
2023/06/16 01:12:05;;;;;;;7.10;6.50;;;15.20;99.90;;;;;;5096897;28;20884;-55
2023/06/16 01:14:43;;;;;;;6.73;6.13;;;15.20;99.90;;;;;;5096726;28;20515;-56
2023/06/16 01:17:46;;;;;;;7.27;6.57;;;15.10;99.90;;;;;;5096611;28;20466;-57
2023/06/16 01:20:19;;;;;;;7.00;6.40;;;15.10;99.90;;;;;;5096676;28;20495;-55
2023/06/16 01:22:58;;;;;;;8.03;5.60;;;15.10;99.90;;;;;;5096558;28;20438;-56
2023/06/16 01:25:31;;;;;;;7.63;6.80;;;15.10;99.90;;;;;;5096536;28;20515;-56
2023/06/16 01:28:00;;;;;;;8.10;5.90;;;15.00;99.90;;;;;;5096339;28;20900;-55
2023/06/16 01:30:30;;;;;;;7.10;6.40;;;15.00;99.90;;;;;;5096334;28;20446;-56
2023/06/16 01:32:58;;;;;;;7.80;6.03;;;15.00;99.90;;;;;;5096064;28;20442;-56
2023/06/16 01:35:26;;;;;;;7.50;6.40;;;15.00;99.90;;;;;;5095596;28;20851;-55
2023/06/16 01:37:54;;;;;;;6.77;6.20;;;15.00;99.90;;;;;;5095712;28;20470;-55
2023/06/16 01:40:21;;;;;;;8.17;7.10;;;15.00;99.90;;;;;;5095080;28;20453;-55
2023/06/16 01:42:50;;;;;;;8.63;7.03;;;15.00;99.90;;;;;;5096071;28;20942;-56
2023/06/16 01:45:18;;;;;;;8.00;6.37;;;15.00;99.90;;;;;;5095273;28;20948;-55
2023/06/16 01:47:46;;;;;;;8.80;5.93;;;15.00;99.90;;;;;;5095721;28;20450;-55
2023/06/16 01:50:13;;;;;;;8.07;6.43;;;15.00;99.90;;;;;;5095432;28;20993;-55
2023/06/16 01:52:40;;;;;;;6.40;5.80;;;15.10;99.90;;;;;;5095615;28;20822;-55
2023/06/16 01:55:08;;;;;;;7.80;7.07;;;15.00;99.90;;;;;;5095689;28;20473;-55
2023/06/16 01:57:36;;;;;;;7.03;6.30;;;15.00;99.90;;;;;;5095509;28;20474;-55
2023/06/16 02:00:10;;;;;;;6.73;5.97;;;15.00;99.90;;;;;;5095406;28;20443;-55
2023/06/16 02:02:41;;;;;;;6.70;6.10;;;15.00;99.90;;;;;;5095374;28;20423;-55
2023/06/16 02:05:11;;;;;;;8.17;6.70;;;15.00;99.90;;;;;;5095414;28;20484;-55
2023/06/16 02:07:43;;;;;;;11.07;7.30;;;15.00;99.90;;;;;;5095611;28;20453;-55
2023/06/16 02:10:12;;;;;;;8.57;6.57;;;15.00;99.90;;;;;;5095653;28;20435;-55
2023/06/16 02:12:39;;;;;;;7.80;7.10;;;14.90;99.90;;;;;;5095086;28;20982;-55
2023/06/16 02:15:09;;;;;;;6.83;5.67;;;14.90;99.90;;;;;;5095368;28;20804;-55
2023/06/16 02:17:35;;;;;;;7.07;6.37;;;15.00;99.90;;;;;;5095576;28;20485;-55
2023/06/16 02:20:05;;;;;;;5.93;5.43;;;15.00;99.90;;;;;;5095430;28;20540;-55
2023/06/16 02:22:32;;;;;;;10.20;6.30;;;14.90;99.90;;;;;;5095189;28;20453;-55
2023/06/16 02:25:00;;;;;;;6.40;5.83;;;14.90;99.90;;;;;;5094949;28;20465;-55
2023/06/16 02:27:27;;;;;;;8.10;6.47;;;14.90;99.90;;;;;;5095256;28;20450;-55
2023/06/16 02:29:53;;;;;;;7.23;6.07;;;14.90;99.90;;;;;;5096044;28;20442;-55
2023/06/16 02:32:21;;;;;;;7.47;6.40;;;15.00;99.90;;;;;;5095458;28;20442;-55
2023/06/16 02:34:48;;;;;;;6.80;6.10;;;15.00;99.90;;;;;;5094552;28;20541;-55
2023/06/16 02:37:15;;;;;;;6.63;5.67;;;14.90;99.90;;;;;;5094372;28;21003;-55
2023/06/16 02:39:42;;;;;;;6.50;5.90;;;14.90;99.90;;;;;;5095200;28;20449;-55
2023/06/16 02:42:09;;;;;;;7.07;5.73;;;14.90;99.90;;;;;;5094865;28;20446;-55
2023/06/16 02:44:35;;;;;;;8.33;6.43;;;14.90;99.90;;;;;;5094635;28;20462;-55
2023/06/16 02:47:03;;;;;;;7.00;6.30;;;14.90;99.90;;;;;;5094717;28;20445;-55
2023/06/16 02:49:31;;;;;;;7.53;5.50;;;14.90;99.90;;;;;;5094240;28;20997;-54
2023/06/16 02:51:58;;;;;;;8.07;5.97;;;14.90;99.90;;;;;;5093621;28;20450;-54
2023/06/16 02:54:25;;;;;;;7.50;6.77;;;14.90;99.90;;;;;;5094109;28;20975;-54
2023/06/16 02:56:51;;;;;;;7.60;6.70;;;14.90;99.90;;;;;;5094211;28;20946;-55
2023/06/16 02:59:18;;;;;;;7.07;6.23;;;15.00;99.90;;;;;;5094394;28;20442;-56
2023/06/16 03:01:45;;;;;;;6.40;5.50;;;15.00;99.90;;;;;;5094436;28;20443;-55
2023/06/16 03:04:12;;;;;;;10.17;6.60;;;15.00;99.90;;;;;;5093916;28;20482;-55
2023/06/16 03:06:44;;;;;;;7.93;7.13;;;15.00;99.90;;;;;;5094377;28;20442;-55
2023/06/16 03:09:11;;;;;;;7.60;6.80;;;15.00;99.90;;;;;;5094272;28;20552;-56
2023/06/16 03:11:38;;;;;;;7.40;5.50;;;15.00;99.90;;;;;;5094206;28;20444;-55
2023/06/16 03:14:06;;;;;;;8.90;6.23;;;15.00;99.90;;;;;;5093859;28;20984;-56
2023/06/16 03:16:33;;;;;;;11.17;6.80;;;14.90;99.90;;;;;;5093639;28;20451;-55
2023/06/16 03:18:59;;;;;;;8.07;6.30;;;14.90;99.90;;;;;;5094108;28;20470;-54
2023/06/16 03:21:27;;;;;;;7.83;6.50;;;14.90;99.90;;;;;;5094546;28;20457;-57
2023/06/16 03:23:55;;;;;;;7.33;6.67;;;14.80;99.90;;;;;;5093967;28;20496;-55
2023/06/16 03:26:22;;;;;;;8.60;6.10;;;14.80;99.90;;;;;;5094117;28;20445;-55
2023/06/16 03:28:49;;;;;;;9.10;7.00;;;14.70;99.90;;;;;;5093804;28;20446;-55
2023/06/16 03:31:17;;;;;;;7.33;6.63;;;14.70;99.90;;;;;;5093602;28;20541;-56
2023/06/16 03:33:44;;;;;;;7.97;6.30;;;14.70;99.90;;;;;;5094039;28;20447;-55
2023/06/16 03:36:11;;;;;;;11.43;6.53;;;14.60;99.90;;;;;;5093973;28;20537;-55
2023/06/16 03:38:38;;;;;;;8.10;6.50;;;14.60;99.90;;;;;;5093788;28;20470;-55
2023/06/16 03:41:06;;;;;;;7.20;6.57;;;14.60;99.90;;;;;;5093977;28;20806;-55
2023/06/16 03:43:33;;;;;;;9.50;6.60;;;14.60;99.90;;;;;;5094797;28;20442;-55
2023/06/16 03:46:00;;;;;;;8.13;6.80;;;14.60;99.90;;;;;;5094969;28;20466;-55
2023/06/16 03:48:27;;;;;;;9.90;6.40;;;14.60;99.90;;;;;;5094432;28;20434;-55
2023/06/16 03:50:54;;;;;;;7.63;6.93;;;14.60;99.90;;;;;;5094745;28;20514;-55
2023/06/16 03:53:21;;;;;;;10.23;7.37;;;14.60;99.90;;;;;;5093722;28;20825;-55
2023/06/16 03:55:48;;;;;;;7.40;6.70;;;14.70;99.90;;;;;;5094358;28;20458;-54
2023/06/16 03:58:16;;;;;;;7.50;6.70;;;14.70;99.90;;;;;;5094261;28;20523;-56
2023/06/16 04:00:43;;;;;;;8.33;7.30;;;14.70;99.90;;;;;;5094125;28;20446;-54
2023/06/16 04:03:10;;;;;;;8.10;6.70;;;14.80;99.90;;;;;;5093524;28;20446;-54
2023/06/16 04:05:37;;;;;;;7.77;7.00;;;14.80;99.90;;;;;;5093906;28;20527;-55
2023/06/16 04:08:05;;;;;;;9.70;6.87;;;14.70;99.90;;;;;;5094590;28;20445;-54
2023/06/16 04:11:50;;;;;;;8.20;6.80;;;14.80;99.90;;;;;;5092510;28;20553;-55
2023/06/16 04:14:17;;;;;;;9.83;7.60;;;14.80;99.90;;;;;;5091883;28;20466;-55
2023/06/16 04:16:44;;;;;;;10.30;7.90;;;14.80;99.90;;;;;;5091356;28;20443;-55
2023/06/16 04:19:11;;;;;;;9.07;6.73;;;14.80;99.90;;;;;;5091526;28;20493;-54
2023/06/16 04:21:38;;;;;;;9.53;7.00;;;14.80;99.90;;;;;;5090647;28;20941;-55
2023/06/16 04:24:06;;;;;;;8.80;7.70;;;14.80;99.90;;;;;;5091109;28;20462;-55
2023/06/16 04:26:33;;;;;;;8.00;7.00;;;14.80;99.90;;;;;;5091051;28;20457;-56
2023/06/16 04:29:03;;;;;;;8.00;7.20;;;14.80;99.90;;;;;;5090188;28;20447;-55
2023/06/16 04:31:32;;;;;;;8.37;7.53;;;14.80;99.90;;;;;;5090211;28;20604;-55
2023/06/16 04:33:59;;;;;;;8.23;7.40;;;14.80;99.90;;;;;;5090200;28;20524;-56
2023/06/16 04:36:29;;;;;;;8.77;7.90;;;14.80;99.90;;;;;;5090143;28;20937;-55
2023/06/16 04:38:56;;;;;;;9.20;7.27;;;14.80;99.90;;;;;;5090098;28;20476;-55
2023/06/16 04:41:23;;;;;;;9.40;7.93;;;14.90;99.90;;;;;;5090104;28;20446;-55
2023/06/16 04:43:49;;;;;;;8.73;7.57;;;14.90;99.90;;;;;;5089896;28;20442;-54
2023/06/16 04:46:18;;;;;;;9.83;8.13;;;15.00;99.90;;;;;;5089624;28;20446;-55
2023/06/16 04:48:45;;;;;;;8.83;7.37;;;15.00;99.90;;;;;;5089498;28;20472;-55
2023/06/16 04:51:12;;;;;;;8.13;7.33;;;15.10;99.90;;;;;;5089911;28;20536;-56
2023/06/16 04:53:38;;;;;;;8.60;7.70;;;15.20;99.90;;;;;;5089386;28;20503;-55
2023/06/16 04:56:05;;;;;;;10.50;7.80;;;15.30;99.90;;;;;;5089679;28;20836;-56
2023/06/16 04:58:32;;;;;;;10.80;8.50;;;15.40;99.90;;;;;;5089662;28;20468;-56
2023/06/16 05:00:59;;;;;;;8.97;8.13;;;15.50;99.90;;;;;;5089254;28;20794;-56
2023/06/16 05:03:27;;;;;;;9.30;8.40;;;15.60;99.90;;;;;;5089432;28;20454;-56
2023/06/16 05:05:54;;;;;;;10.60;8.30;;;15.70;99.60;;;;;;5090575;28;20458;-56
2023/06/16 05:08:21;;;;;;;9.80;8.80;;;15.80;99.40;;;;;;5090158;28;20442;-57
2023/06/16 05:10:47;;;;;;;10.63;7.77;;;15.90;99.20;;;;;;5089618;28;20482;-53
2023/06/16 05:13:14;;;;;;;10.33;7.20;;;15.90;98.80;;;;;;5089951;28;20449;-55
2023/06/16 05:15:41;;;;;;;9.37;7.80;;;16.10;98.50;;;;;;5089814;28;20553;-55
2023/06/16 05:18:08;;;;;;;11.63;7.73;;;16.10;97.90;;;;;;5089364;28;20944;-56
2023/06/16 05:20:36;;;;;;;10.27;7.80;;;16.00;97.70;;;;;;5089269;28;20451;-55
2023/06/16 05:23:03;;;;;;;10.13;9.13;;;16.00;97.80;;;;;;5076767;28;20825;-55
2023/06/16 05:25:30;;;;;;;9.20;8.20;;;16.00;97.90;;;;;;5075794;28;20851;-55
2023/06/16 05:27:57;;;;;;;11.27;8.37;;;16.00;97.90;;;;;;5075520;28;20450;-56
2023/06/16 05:30:24;;;;;;;8.80;7.80;;;16.00;97.80;;;;;;5075807;28;20490;-56
2023/06/16 05:32:50;;;;;;;11.87;8.93;;;16.10;97.70;;;;;;5075774;28;20453;-56
2023/06/16 05:35:17;;;;;;;10.27;8.67;;;16.20;97.60;;;;;;5075698;28;20462;-56
2023/06/16 05:37:45;;;;;;;10.17;9.00;;;16.20;97.40;;;;;;5075551;28;20447;-56
2023/06/16 05:40:12;;;;;;;11.30;7.63;;;16.20;97.40;;;;;;5075853;28;20471;-56
2023/06/16 05:42:39;;;;;;;9.70;8.57;;;16.30;97.50;;;;;;5075809;28;20443;-55
2023/06/16 05:45:07;;;;;;;10.33;8.90;;;16.40;97.50;;;;;;5075846;28;20467;-55
2023/06/16 05:47:34;;;;;;;9.40;7.90;;;16.60;97.20;;;;;;5075331;28;20448;-55
2023/06/16 05:50:01;;;;;;;9.53;8.60;;;16.70;96.80;;;;;;5075447;28;20443;-57
2023/06/16 05:52:29;;;;;;;9.73;8.83;;;16.80;96.50;;;;;;5074876;28;20447;-55
2023/06/16 05:54:58;;;;;;;9.70;8.80;;;16.90;96.20;;;;;;5075597;28;20466;-55
2023/06/16 05:57:25;;;;;;;12.17;10.43;;;16.90;96.10;;;;;;5076010;28;20440;-55
2023/06/16 05:59:53;;;;;;;11.10;10.00;;;16.90;95.80;;;;;;5075436;28;20455;-55
2023/06/16 06:02:20;;;;;;;10.23;9.23;;;17.00;95.60;;;;;;5075202;28;20447;-55
2023/06/16 06:04:47;;;;;;;9.77;8.77;;;17.00;95.50;;;;;;5093213;22;20487;-54
2023/06/16 06:07:14;;;;;;;11.33;8.83;;;17.00;95.30;;;;;;5054882;28;20476;-54
2023/06/16 06:09:40;;;;;;;11.60;10.07;;;17.10;95.40;;;;;;5054637;28;20451;-54
2023/06/16 06:12:11;;;;;;;12.63;8.90;;;17.10;95.20;;;;;;5054832;28;20491;-57
2023/06/16 06:14:37;;;;;;;10.40;9.30;;;17.20;95.10;;;;;;5055402;28;20464;-55
2023/06/16 06:17:05;;;;;;;10.90;9.50;;;17.30;94.70;;;;;;5054927;28;20455;-56
2023/06/16 06:19:32;;;;;;;12.37;9.33;;;17.30;94.60;;;;;;5054375;28;20444;-56
2023/06/16 06:21:58;;;;;;;12.00;8.77;;;17.50;94.60;;;;;;5054512;28;20942;-54
2023/06/16 06:24:25;;;;;;;10.17;9.00;;;17.60;94.20;;;;;;5054524;28;21779;-55
2023/06/16 06:26:52;;;;;;;13.30;9.20;;;17.70;93.80;;;;;;5054916;28;20462;-55
2023/06/16 06:29:20;;;;;;;9.67;8.67;;;17.90;93.50;;;;;;5055638;28;20646;-56
2023/06/16 06:31:47;;;;;;;9.80;8.50;;;18.00;93.00;;;;;;5054435;28;20478;-55
2023/06/16 06:34:14;;;;;;;10.33;9.33;;;18.00;92.40;;;;;;5054046;28;20820;-55
2023/06/16 06:36:41;;;;;;;9.67;8.67;;;18.00;92.20;;;;;;5054084;28;20527;-56
2023/06/16 06:39:08;;;;;;;11.00;9.03;;;18.00;92.00;;;;;;5053833;28;20482;-56
2023/06/16 06:41:35;;;;;;;10.13;8.70;;;18.10;91.90;;;;;;5053978;28;20448;-55
2023/06/16 06:44:02;;;;;;;10.00;8.93;;;18.20;91.40;;;;;;5053492;28;20447;-56
2023/06/16 06:46:30;;;;;;;13.80;9.90;;;18.30;91.00;;;;;;5053990;28;20468;-56
2023/06/16 06:48:57;;;;;;;10.37;9.27;;;18.40;90.50;;;;;;5054280;28;20458;-56
2023/06/16 06:51:24;;;;;;;10.70;8.60;;;18.50;90.20;;;;;;5053573;28;20484;-56
2023/06/16 06:53:53;;;;;;;12.27;9.53;;;18.70;89.80;;;;;;5053615;28;20441;-56
2023/06/16 06:56:22;;;;;;;11.03;9.83;;;18.90;88.10;;;;;;5053124;28;20464;-55
2023/06/16 06:58:49;;;;;;;9.97;9.00;;;19.00;87.20;;;;;;5053568;28;20564;-55
2023/06/16 07:01:16;;;;;;;10.53;8.77;;;19.10;86.10;;;;;;5053568;28;20447;-54
2023/06/16 07:03:44;;;;;;;11.27;9.70;;;19.30;85.70;;;;;;5053420;28;20468;-56
2023/06/16 07:06:11;;;;;;;9.77;8.77;;;19.20;83.90;;;;;;5054080;28;20484;-55
2023/06/16 07:08:38;;;;;;;9.87;8.90;;;19.20;84.60;;;;;;5053556;28;20452;-55
2023/06/16 07:11:05;;;;;;;10.90;8.60;;;19.20;84.60;;;;;;5053581;28;21028;-55
2023/06/16 07:13:32;;;;;;;11.77;9.17;;;19.30;84.20;;;;;;5053748;28;20460;-55
2023/06/16 07:15:58;;;;;;;13.20;9.23;;;19.50;83.50;;;;;;5053561;28;20457;-55
2023/06/16 07:18:25;;;;;;;10.47;9.33;;;19.60;82.40;;;;;;5053537;28;20454;-54
2023/06/16 07:20:53;;;;;;;10.00;9.10;;;19.60;81.20;;;;;;5053327;28;20476;-54
2023/06/16 07:23:20;;;;;;;9.13;8.23;;;19.50;80.80;;;;;;5053416;28;20444;-55
2023/06/16 07:25:47;;;;;;;10.23;9.23;;;19.50;81.10;;;;;;5054475;28;20475;-54
2023/06/16 07:28:14;;;;;;;10.90;9.80;;;19.50;80.80;;;;;;5054191;28;20459;-55
2023/06/16 07:30:41;;;;;;;12.20;9.57;;;19.50;80.80;;;;;;5054918;28;20444;-55
2023/06/16 07:33:08;;;;;;;11.47;10.03;;;19.40;80.90;;;;;;5053965;28;20444;-55
2023/06/16 07:35:35;;;;;;;11.50;9.83;;;19.40;81.40;;;;;;5053541;28;20513;-55
2023/06/16 07:38:03;;;;;;;10.73;9.70;;;19.30;81.70;;;;;;5053484;28;20455;-55
2023/06/16 07:40:30;;;;;;;10.83;9.73;;;19.20;82.40;;;;;;5052950;28;20822;-55
2023/06/16 07:42:57;;;;;;;11.80;8.63;;;19.10;83.30;;;;;;5053052;28;20444;-55
2023/06/16 07:45:24;;;;;;;10.60;8.93;;;19.10;84.30;;;;;;5053413;28;20468;-57
2023/06/16 07:47:50;;;;;;;10.20;9.10;;;19.10;85.30;;;;;;5053461;28;20795;-56
2023/06/16 07:50:17;;;;;;;11.97;9.40;;;19.10;85.40;;;;;;5053078;28;20949;-56
2023/06/16 07:52:44;;;;;;;8.70;8.00;;;19.10;85.50;;;;;;5053481;28;20472;-56
2023/06/16 07:55:12;;;;;;;9.33;8.40;;;19.40;84.80;;;;;;5052881;28;21008;-56
2023/06/16 07:57:39;;;;;;;8.70;7.90;;;19.70;82.70;;;;;;5053038;28;20985;-56
2023/06/16 08:00:11;;;;;;;9.73;8.60;;;19.90;80.50;;;;;;5052847;28;20441;-56
2023/06/16 08:02:39;;;;;;;9.10;8.20;;;20.20;77.60;;;;;;5053399;28;20428;-55
2023/06/16 08:05:07;;;;;;;9.97;7.70;;;20.40;75.60;;;;;;5052530;28;20473;-57
2023/06/16 08:07:33;;;;;;;7.70;6.90;;;20.60;73.30;;;;;;5053293;28;20856;-57
2023/06/16 08:10:00;;;;;;;7.10;6.40;;;20.80;71.10;;;;;;5054102;28;20546;-57
2023/06/16 08:12:29;;;;;;;7.70;7.00;;;21.00;68.40;;;;;;5053037;28;20485;-56
2023/06/16 08:14:55;;;;;;;10.40;7.30;;;21.10;67.40;;;;;;5053730;28;20473;-59
2023/06/16 08:17:22;;;;;;;8.00;7.10;;;21.30;65.80;;;;;;5053594;28;20448;-57
2023/06/16 08:19:49;;;;;;;7.27;6.50;;;21.40;64.50;;;;;;5052819;28;20438;-56
2023/06/16 08:22:16;;;;;;;6.83;6.23;;;21.40;64.20;;;;;;5053197;28;20454;-57
2023/06/16 08:24:43;;;;;;;7.00;6.20;;;21.50;64.60;;;;;;5053191;28;20465;-57
2023/06/16 08:27:11;;;;;;;7.93;6.17;;;21.70;63.70;;;;;;5054017;28;20501;-56
2023/06/16 08:29:41;;;;;;;6.97;6.27;;;22.10;63.10;;;;;;5053501;28;20499;-57
2023/06/16 08:32:07;;;;;;;7.43;6.63;;;22.30;62.20;;;;;;5052817;28;21014;-58
2023/06/16 08:34:35;;;;;;;6.90;6.20;;;22.30;61.60;;;;;;5052542;28;20497;-57
2023/06/16 08:37:02;;;;;;;8.23;6.97;;;22.30;61.70;;;;;;5053116;28;20462;-57
2023/06/16 08:39:29;;;;;;;6.80;6.23;;;22.30;61.40;;;;;;5052972;28;20440;-58
2023/06/16 08:41:57;;;;;;;8.93;6.70;;;22.40;60.80;;;;;;5052684;28;20440;-60
2023/06/16 08:44:27;;;;;;;8.20;7.40;;;22.50;60.50;;;;;;5052759;28;20436;-58
2023/06/16 08:46:57;;;;;;;10.60;7.50;;;22.60;60.00;;;;;;5053096;28;20440;-60
2023/06/16 08:49:24;;;;;;;8.63;7.83;;;22.70;60.00;;;;;;5053079;28;20433;-58
2023/06/16 08:51:51;;;;;;;9.23;7.37;;;22.80;60.00;;;;;;5052697;28;20876;-58
2023/06/16 08:54:21;;;;;;;8.33;7.53;;;23.00;59.90;;;;;;5052551;28;20459;-59
2023/06/16 08:56:51;;;;;;;8.47;7.10;;;23.30;59.50;;;;;;5053388;28;20505;-59
2023/06/16 08:59:20;;;;;;;10.77;6.93;;;23.50;58.90;;;;;;5056897;28;20448;-59
2023/06/16 09:01:49;;;;;;;7.63;6.47;;;23.60;57.90;;;;;;5056368;28;20796;-59
2023/06/16 09:04:17;;;;;;;8.70;7.83;;;23.50;57.10;;;;;;5056127;28;20535;-60
2023/06/16 09:06:48;;;;;;;7.70;6.87;;;23.40;56.90;;;;;;5056918;28;20433;-58
2023/06/16 09:09:16;;;;;;;7.63;6.83;;;23.40;56.80;;;;;;5055747;28;20941;-56
2023/06/16 09:11:43;;;;;;;9.50;7.87;;;23.40;57.20;;;;;;5056549;28;20504;-54
2023/06/16 09:14:13;;;;;;;8.60;7.40;;;23.30;56.80;;;;;;5056196;28;20445;-61
2023/06/16 09:16:40;;;;;;;10.23;9.20;;;23.40;57.00;;;;;;5056778;28;20498;-58
2023/06/16 09:19:08;;;;;;;8.33;7.53;;;23.40;57.00;;;;;;5055540;28;20466;-57
2023/06/16 09:21:37;;;;;;;9.67;7.40;;;23.60;57.00;;;;;;5055793;28;20452;-58
2023/06/16 09:24:05;;;;;;;7.07;6.37;;;23.80;56.30;;;;;;5056579;28;20469;-57
2023/06/16 09:26:35;;;;;;;8.27;7.23;;;24.10;55.50;;;;;;5056127;28;20473;-58
2023/06/16 09:29:03;;;;;;;9.63;7.70;;;24.30;54.10;;;;;;5055970;28;20437;-57
2023/06/16 09:31:30;;;;;;;10.60;8.40;;;24.50;53.30;;;;;;5055155;28;20533;-56
2023/06/16 09:34:05;;;;;;;8.30;6.60;;;24.50;53.10;;;;;;5055536;28;20457;-55
2023/06/16 09:36:32;;;;;;;8.10;7.40;;;24.60;52.50;;;;;;5055451;28;20442;-54
2023/06/16 09:39:01;;;;;;;7.77;6.97;;;24.60;51.80;;;;;;5055401;28;20446;-57
2023/06/16 09:41:27;;;;;;;7.53;6.83;;;24.50;51.50;;;;;;5055978;28;20466;-59
2023/06/16 09:43:58;;;;;;;7.60;6.40;;;24.40;51.00;;;;;;5055340;28;20469;-58
2023/06/16 09:46:25;;;;;;;9.00;7.30;;;24.40;51.00;;;;;;5055236;28;20472;-57
2023/06/16 09:48:52;;;;;;;8.10;7.40;;;24.50;51.20;;;;;;5055357;28;20447;-58
2023/06/16 09:51:21;;;;;;;8.10;7.13;;;24.50;51.10;;;;;;5055074;28;20450;-58
2023/06/16 09:53:48;;;;;;;8.20;7.40;;;24.50;51.20;;;;;;5055539;28;20447;-59
2023/06/16 09:56:17;;;;;;;9.77;8.37;;;24.60;51.30;;;;;;5056248;28;20553;-56
2023/06/16 09:58:45;;;;;;;9.80;8.67;;;24.70;51.20;;;;;;5055149;28;20448;-59
2023/06/16 10:01:13;;;;;;;8.73;7.83;;;24.50;51.50;;;;;;5055261;28;20449;-57
2023/06/16 10:03:41;;;;;;;10.47;8.57;;;24.50;52.00;;;;;;5055270;28;20878;-58
2023/06/16 10:06:16;;;;;;;11.90;9.97;;;24.60;52.20;;;;;;5054714;28;20534;-57
2023/06/16 10:08:43;;;;;;;9.37;8.37;;;24.70;52.20;;;;;;5054863;28;20496;-59
2023/06/16 10:11:12;;;;;;;10.47;9.57;;;24.90;52.40;;;;;;5054659;28;20455;-57
2023/06/16 10:13:43;;;;;;;9.73;8.83;;;25.30;52.60;;;;;;5055456;28;20433;-57
2023/06/16 10:16:13;;;;;;;9.43;8.60;;;25.50;51.60;;;;;;5055505;28;20460;-57
2023/06/16 10:18:41;;;;;;;8.40;7.60;;;25.60;51.30;;;;;;5055421;28;20811;-58
2023/06/16 10:21:10;;;;;;;8.47;7.67;;;25.50;50.80;;;;;;5055768;28;20451;-57
2023/06/16 10:23:37;;;;;;;8.87;7.60;;;25.50;51.00;;;;;;5055136;28;20443;-57
2023/06/16 10:26:05;;;;;;;9.13;8.33;;;25.50;50.80;;;;;;5054401;28;20460;-57
2023/06/16 10:28:33;;;;;;;9.50;7.97;;;25.60;50.60;;;;;;5055385;28;20536;-57
2023/06/16 10:31:02;;;;;;;8.20;7.50;;;25.50;50.60;;;;;;5054774;28;20479;-57
2023/06/16 10:33:28;;;;;;;7.87;7.17;;;25.40;50.60;;;;;;5055313;28;20477;-57
2023/06/16 10:35:57;;;;;;;6.90;6.30;;;25.20;50.30;;;;;;5055436;28;20472;-57
2023/06/16 10:38:32;;;;;;;7.07;6.30;;;25.20;50.40;;;;;;5054577;28;20938;-58
2023/06/16 10:41:01;;;;;;;7.10;6.50;;;25.10;50.10;;;;;;5054611;28;20423;-58
2023/06/16 10:43:28;;;;;;;7.30;6.70;;;25.10;49.50;;;;;;5054686;28;20448;-58
2023/06/16 10:46:15;;;;;;;9.60;6.27;;;25.10;49.00;;;;;;5054640;28;20467;-58
2023/06/16 10:48:57;;;;;;;8.30;7.50;;;25.20;48.70;;;;;;5054036;28;20455;-58
2023/06/16 10:51:44;;;;;;;7.37;6.67;;;25.10;48.60;;;;;;5037689;28;20454;-57
2023/06/16 10:54:12;;;;;;;8.70;7.67;;;25.00;49.00;;;;;;5053364;28;20444;-57
2023/06/16 10:57:02;;;;;;;9.70;7.30;;;25.00;49.40;;;;;;5054593;28;20481;-58
2023/06/16 10:59:29;;;;;;;9.33;8.53;;;24.80;49.80;;;;;;5053876;28;20519;-58
2023/06/16 11:01:59;;;;;;;7.90;7.20;;;24.80;50.10;;;;;;5053736;28;20450;-59
2023/06/16 11:04:26;;;;;;;8.03;7.33;;;25.00;50.20;;;;;;5053759;28;20489;-59
2023/06/16 11:07:11;;;;;;;7.77;7.07;;;25.10;50.10;;;;;;5054110;28;20437;-57
2023/06/16 11:09:38;;;;;;;7.27;6.67;;;25.30;49.80;;;;;;5054160;28;20448;-58
2023/06/16 11:12:06;;;;;;;7.47;6.87;;;25.60;49.30;;;;;;5054058;28;20482;-59
2023/06/16 11:14:33;;;;;;;8.27;7.47;;;25.70;48.70;;;;;;5053694;28;20471;-58
2023/06/16 11:17:03;;;;;;;8.63;6.87;;;25.80;48.50;;;;;;5053171;28;20440;-57
2023/06/16 11:19:30;;;;;;;7.13;6.10;;;26.00;48.30;;;;;;5053136;28;20445;-58
2023/06/16 11:22:01;;;;;;;9.23;6.70;;;26.20;48.10;;;;;;5053643;28;20472;-58
2023/06/16 11:24:32;;;;;;;6.70;6.10;;;26.40;47.40;;;;;;5053478;28;20461;-58
2023/06/16 11:27:00;;;;;;;7.70;6.10;;;26.40;46.70;;;;;;5052860;28;20439;-55
2023/06/16 11:29:29;;;;;;;7.17;6.33;;;26.20;46.30;;;;;;5052960;28;20453;-57
2023/06/16 11:31:59;;;;;;;9.83;6.17;;;26.00;46.40;;;;;;5052884;28;20441;-56
2023/06/16 11:34:27;;;;;;;8.43;5.43;;;25.90;46.40;;;;;;5052802;28;21225;-58
2023/06/16 11:36:54;;;;;;;6.30;5.87;;;26.00;45.80;;;;;;5053558;28;20531;-57
2023/06/16 11:39:21;;;;;;;6.50;5.90;;;26.10;45.50;;;;;;5053660;28;20438;-57
2023/06/16 11:41:55;;;;;;;6.50;5.90;;;26.30;45.10;;;;;;5053711;28;20442;-57
2023/06/16 11:44:21;;;;;;;5.87;5.30;;;26.50;44.70;;;;;;5053764;28;20431;-58
2023/06/16 11:46:48;;;;;;;6.40;5.50;;;26.80;43.90;;;;;;5053769;28;20455;-58
2023/06/16 11:49:16;;;;;;;6.10;5.47;;;27.00;43.20;;;;;;5052918;28;20451;-57
2023/06/16 11:51:45;;;;;;;6.50;5.80;;;27.40;42.20;;;;;;5053557;28;20440;-57
2023/06/16 11:54:11;;;;;;;6.17;5.67;;;27.70;40.80;;;;;;5053010;28;20975;-56
2023/06/16 11:56:40;;;;;;;6.10;5.50;;;27.70;40.00;;;;;;5053829;28;20453;-58
2023/06/16 11:59:08;;;;;;;8.10;6.00;;;27.50;40.00;;;;;;5053884;28;20528;-57
2023/06/16 12:01:36;;;;;;;7.40;6.20;;;27.30;40.40;;;;;;5052669;28;20455;-58
2023/06/16 12:04:03;;;;;;;6.40;5.87;;;27.20;40.80;;;;;;5054118;28;20447;-58
2023/06/16 12:06:31;;;;;;;6.80;6.30;;;27.00;41.30;;;;;;5052713;28;20522;-57
2023/06/16 12:09:01;;;;;;;6.50;5.87;;;26.90;41.90;;;;;;5053389;28;20539;-57
2023/06/16 12:11:29;;;;;;;6.60;6.00;;;27.20;41.80;;;;;;5053205;28;20538;-58
2023/06/16 12:13:56;;;;;;;6.00;5.50;;;27.20;41.70;;;;;;5052558;28;20487;-58
2023/06/16 12:16:23;;;;;;;6.87;5.83;;;27.20;42.00;;;;;;5092995;22;20493;-59
2023/06/16 12:18:51;;;;;;;5.87;5.37;;;27.30;41.00;;;;;;5075498;28;20451;-59
2023/06/16 12:21:20;;;;;;;7.60;6.00;;;27.10;40.40;;;;;;5073697;28;20437;-60
2023/06/16 12:23:52;;;;;;;8.73;6.40;;;26.70;41.00;;;;;;5073458;28;20437;-59
2023/06/16 12:26:32;;;;;;;7.53;6.13;;;26.40;42.00;;;;;;5073677;28;20516;-59
2023/06/16 12:29:01;;;;;;;6.30;5.70;;;26.20;42.70;;;;;;5073086;28;20799;-59
2023/06/16 12:31:28;;;;;;;6.20;5.60;;;26.30;42.90;;;;;;5075647;28;20447;-59
2023/06/16 12:33:56;;;;;;;6.53;5.90;;;26.40;42.90;;;;;;5077972;28;20477;-59
2023/06/16 12:36:23;;;;;;;6.10;5.50;;;26.30;43.10;;;;;;5078886;28;20466;-59
2023/06/16 12:38:53;;;;;;;6.87;6.20;;;26.10;42.90;;;;;;5080537;28;20944;-60
2023/06/16 12:41:20;;;;;;;6.07;5.57;;;26.00;43.20;;;;;;5077888;28;20469;-59
2023/06/16 12:43:49;;;;;;;6.40;5.87;;;25.90;43.40;;;;;;5077207;28;20806;-60
2023/06/16 12:46:17;;;;;;;6.20;5.60;;;26.00;43.60;;;;;;5079162;28;20480;-58
2023/06/16 12:48:44;;;;;;;9.23;5.80;;;26.00;43.60;;;;;;5077635;28;20799;-59
2023/06/16 12:51:11;;;;;;;6.80;5.70;;;26.10;43.40;;;;;;5077360;28;21030;-59